Time;durP1;ratioP1;P1;durP2;ratioP2;P2;SDS_P1;SDS_P2;PMS_P1;PMS_P2;Temp;Humidity;BMP_temperature;BMP_pressure;BME280_temperature;BME280_humidity;BME280_pressure;Samples;Min_cycle;Max_cycle;Signal;HPM_P1;HPM_P2
2022/11/13 00:03:12;;;;;;;11.30;8.57;;;11.50;99.90;;;;;;10340403;28;20196;-80
2022/11/13 00:08:53;;;;;;;11.23;7.60;;;11.50;99.90;;;;;;10375932;28;20265;-80
2022/11/13 00:14:34;;;;;;;11.87;7.83;;;11.40;99.90;;;;;;10315913;28;20241;-79
2022/11/13 00:20:13;;;;;;;9.83;7.07;;;11.50;99.90;;;;;;10348008;28;20270;-80
2022/11/13 00:25:53;;;;;;;8.10;6.70;;;11.50;99.90;;;;;;10334428;28;20198;-88
2022/11/13 00:31:34;;;;;;;8.43;6.10;;;11.50;99.90;;;;;;10359838;28;20199;-87
2022/11/13 00:37:15;;;;;;;8.30;6.40;;;11.50;99.90;;;;;;10331847;28;20302;-79
2022/11/13 00:42:55;;;;;;;8.83;6.40;;;11.50;99.90;;;;;;10359422;28;20190;-87
2022/11/13 00:48:35;;;;;;;7.73;5.87;;;11.50;99.90;;;;;;10331252;28;20209;-86
2022/11/13 00:54:15;;;;;;;8.07;5.83;;;11.50;99.90;;;;;;10346439;28;20222;-81
2022/11/13 00:59:55;;;;;;;7.77;5.30;;;11.50;99.90;;;;;;10343120;28;20235;-83
2022/11/13 01:05:40;;;;;;;7.33;5.67;;;11.40;99.90;;;;;;10320917;28;20217;-82
2022/11/13 01:11:23;;;;;;;8.80;5.87;;;11.50;99.90;;;;;;10382262;28;20248;-86
2022/11/13 01:17:03;;;;;;;9.00;6.00;;;11.50;99.90;;;;;;10329548;28;20237;-79
2022/11/13 01:22:43;;;;;;;7.10;5.30;;;11.40;99.90;;;;;;10357827;28;20190;-88
2022/11/13 01:28:23;;;;;;;7.17;4.90;;;11.50;99.90;;;;;;10340355;28;20250;-86
2022/11/13 01:34:03;;;;;;;5.77;4.43;;;11.40;99.90;;;;;;10339863;28;20397;-88
2022/11/13 01:39:43;;;;;;;5.37;4.87;;;11.50;99.90;;;;;;10339683;28;20217;-88
2022/11/13 01:45:57;;;;;;;5.83;4.87;;;11.40;99.90;;;;;;10356851;28;20201;-81
2022/11/13 01:51:57;;;;;;;5.37;4.87;;;11.40;99.90;;;;;;10330789;28;20210;-79
2022/11/13 01:57:37;;;;;;;6.20;5.13;;;11.40;99.90;;;;;;10339370;28;20246;-82
2022/11/13 02:03:17;;;;;;;5.43;4.90;;;11.40;99.90;;;;;;10333715;28;20288;-82
2022/11/13 02:08:57;;;;;;;5.10;4.60;;;11.40;99.90;;;;;;10367626;28;20392;-82
2022/11/13 02:14:50;;;;;;;6.83;5.07;;;11.40;99.90;;;;;;10312839;28;20224;-79
2022/11/13 02:20:51;;;;;;;8.40;5.30;;;11.40;99.90;;;;;;10298528;28;20232;-81
2022/11/13 02:26:32;;;;;;;8.73;6.07;;;11.50;99.90;;;;;;10315437;28;20219;-79
2022/11/13 02:32:12;;;;;;;9.80;6.30;;;11.40;99.90;;;;;;10303632;28;20219;-89
2022/11/13 02:37:55;;;;;;;9.60;6.33;;;11.40;99.90;;;;;;10315462;28;20228;-88
2022/11/13 02:43:35;;;;;;;9.63;6.40;;;11.40;99.90;;;;;;10307542;28;20405;-82
2022/11/13 02:49:15;;;;;;;8.13;6.03;;;11.40;99.90;;;;;;10320912;28;20212;-88
2022/11/13 02:54:55;;;;;;;5.33;4.23;;;11.40;99.90;;;;;;10305641;28;20239;-87
2022/11/13 03:00:35;;;;;;;4.17;3.77;;;11.40;99.90;;;;;;10322812;28;20236;-87
2022/11/13 03:06:15;;;;;;;5.90;4.77;;;11.40;99.90;;;;;;10330965;28;20489;-82
2022/11/13 03:11:55;;;;;;;4.60;4.00;;;11.40;99.90;;;;;;10363257;28;20206;-80
2022/11/13 03:17:34;;;;;;;5.93;5.30;;;11.40;99.90;;;;;;10365014;28;20350;-80
2022/11/13 03:23:14;;;;;;;6.13;5.13;;;11.40;99.90;;;;;;10333855;28;20212;-87
2022/11/13 03:28:54;;;;;;;6.77;5.07;;;11.40;99.90;;;;;;10345094;28;20203;-88
2022/11/13 03:34:34;;;;;;;5.17;4.63;;;11.40;99.90;;;;;;10344371;28;20436;-80
2022/11/13 03:40:14;;;;;;;6.50;4.77;;;11.40;99.90;;;;;;10344206;28;20206;-82
2022/11/13 03:45:54;;;;;;;10.37;6.67;;;11.40;99.90;;;;;;10349531;28;20376;-88
2022/11/13 03:51:35;;;;;;;10.03;6.87;;;11.40;99.90;;;;;;10361659;28;20200;-81
2022/11/13 03:57:15;;;;;;;9.27;6.77;;;11.40;99.90;;;;;;10333531;28;20290;-83
2022/11/13 04:02:54;;;;;;;11.80;7.30;;;11.40;99.90;;;;;;10341523;28;20487;-80
2022/11/13 04:08:34;;;;;;;9.47;8.03;;;11.30;99.90;;;;;;10355379;28;20205;-81
2022/11/13 04:14:14;;;;;;;9.60;7.43;;;11.40;99.90;;;;;;10319441;28;20203;-88
2022/11/13 04:19:55;;;;;;;10.27;7.87;;;11.30;99.90;;;;;;10363349;28;20208;-80
2022/11/13 04:25:34;;;;;;;8.53;7.20;;;11.30;99.90;;;;;;10343321;28;20289;-80
2022/11/13 04:31:14;;;;;;;11.00;8.73;;;11.30;99.90;;;;;;10348201;28;20197;-80
2022/11/13 04:36:55;;;;;;;7.57;6.20;;;11.30;99.90;;;;;;10342237;28;20260;-88
2022/11/13 04:42:50;;;;;;;8.90;6.73;;;11.30;99.90;;;;;;10331212;28;20225;-87
2022/11/13 04:48:30;;;;;;;6.60;5.90;;;11.30;99.90;;;;;;10336068;28;20219;-79
2022/11/13 04:54:10;;;;;;;6.93;5.77;;;11.30;99.90;;;;;;10371658;28;20191;-81
2022/11/13 04:59:50;;;;;;;5.47;4.87;;;11.30;99.90;;;;;;10335182;28;20233;-80
2022/11/13 05:05:30;;;;;;;5.27;4.17;;;11.30;99.90;;;;;;10313993;28;20411;-79
2022/11/13 05:11:10;;;;;;;4.30;3.87;;;11.30;99.90;;;;;;10353365;28;20215;-79
2022/11/13 05:16:50;;;;;;;4.90;3.63;;;11.30;99.90;;;;;;10347283;28;20415;-80
2022/11/13 05:22:30;;;;;;;5.17;4.17;;;11.30;99.90;;;;;;10340325;28;20206;-88
2022/11/13 05:28:10;;;;;;;6.43;5.47;;;11.30;99.90;;;;;;10357463;28;20428;-81
2022/11/13 05:33:50;;;;;;;8.47;6.10;;;11.30;99.90;;;;;;10346496;28;20404;-80
2022/11/13 05:39:30;;;;;;;6.87;4.87;;;11.20;99.90;;;;;;10357302;28;20481;-79
2022/11/13 05:45:09;;;;;;;6.13;4.70;;;11.20;99.90;;;;;;10328616;28;20228;-81
2022/11/13 05:50:49;;;;;;;5.17;4.53;;;11.20;99.90;;;;;;10338953;28;20213;-79
2022/11/13 05:56:33;;;;;;;6.03;5.43;;;11.20;99.90;;;;;;10339149;28;20254;-81
2022/11/13 06:02:12;;;;;;;7.20;5.53;;;11.20;99.90;;;;;;10330849;28;20502;-80
2022/11/13 06:07:52;;;;;;;8.23;5.87;;;11.20;99.90;;;;;;10340866;28;20225;-87
2022/11/13 06:13:32;;;;;;;9.90;7.13;;;11.20;99.90;;;;;;10326207;28;20205;-88
2022/11/13 06:19:12;;;;;;;10.00;6.10;;;11.20;99.90;;;;;;10357230;28;20273;-80
2022/11/13 06:24:52;;;;;;;6.13;4.93;;;11.20;99.90;;;;;;10327159;28;20202;-80
2022/11/13 06:30:32;;;;;;;6.47;5.17;;;11.20;99.90;;;;;;10338365;28;20208;-86
2022/11/13 06:36:14;;;;;;;7.20;5.13;;;11.20;99.90;;;;;;10356142;28;20227;-82
2022/11/13 06:41:55;;;;;;;7.00;5.33;;;11.20;99.90;;;;;;10338233;28;20209;-79
2022/11/13 06:47:35;;;;;;;8.47;4.70;;;11.20;99.90;;;;;;10326526;28;20283;-79
2022/11/13 06:53:16;;;;;;;3.87;3.47;;;11.30;99.90;;;;;;10355191;28;20189;-80
2022/11/13 06:58:56;;;;;;;3.50;3.17;;;11.30;99.90;;;;;;10326453;28;20310;-80
2022/11/13 07:04:36;;;;;;;3.57;3.00;;;11.30;99.90;;;;;;10293894;28;20207;-80
2022/11/13 07:10:16;;;;;;;2.53;2.33;;;11.30;99.90;;;;;;10295383;28;20213;-81
2022/11/13 07:16:01;;;;;;;4.17;3.53;;;11.30;99.90;;;;;;10339938;28;20228;-82
2022/11/13 07:21:47;;;;;;;12.13;8.60;;;11.30;99.90;;;;;;10354784;28;20219;-81
2022/11/13 07:27:27;;;;;;;13.03;9.83;;;11.30;99.90;;;;;;10337549;28;20464;-85
2022/11/13 07:33:07;;;;;;;13.63;10.07;;;11.30;99.90;;;;;;10339979;28;20283;-84
2022/11/13 07:38:47;;;;;;;12.57;9.67;;;11.30;99.90;;;;;;10344397;28;20243;-80
2022/11/13 07:44:27;;;;;;;9.80;7.13;;;11.40;99.90;;;;;;10349567;28;20198;-79
2022/11/13 07:50:18;;;;;;;7.73;6.00;;;11.40;99.90;;;;;;10334509;28;20209;-81
2022/11/13 07:56:00;;;;;;;6.33;5.13;;;11.50;99.90;;;;;;10332563;28;20254;-79
2022/11/13 08:01:40;;;;;;;3.97;3.13;;;11.50;99.90;;;;;;10332247;28;20231;-85
2022/11/13 08:07:20;;;;;;;3.43;3.13;;;11.60;99.90;;;;;;10381954;28;20189;-81
2022/11/13 08:13:06;;;;;;;2.60;2.40;;;11.60;99.90;;;;;;10316789;28;20277;-83
2022/11/13 08:18:46;;;;;;;2.57;2.37;;;11.70;99.90;;;;;;10338770;28;20246;-81
2022/11/13 08:24:26;;;;;;;3.30;3.00;;;11.80;99.90;;;;;;10342707;28;20204;-80
2022/11/13 08:30:07;;;;;;;3.43;2.90;;;11.80;99.90;;;;;;10359846;28;20287;-83
2022/11/13 08:35:57;;;;;;;4.80;3.33;;;11.90;99.90;;;;;;10342330;28;20229;-82
2022/11/13 08:41:37;;;;;;;11.73;8.63;;;11.90;99.90;;;;;;10331103;28;20373;-82
2022/11/13 08:47:18;;;;;;;6.37;5.03;;;11.90;99.90;;;;;;10341118;28;20211;-83
2022/11/13 08:53:00;;;;;;;5.20;2.93;;;11.80;99.90;;;;;;10359251;28;20205;-85
2022/11/13 08:58:39;;;;;;;2.97;2.27;;;11.90;99.90;;;;;;10346497;28;20245;-82
2022/11/13 09:04:20;;;;;;;2.90;2.60;;;11.90;99.90;;;;;;10327590;28;20499;-82
2022/11/13 09:10:00;;;;;;;5.37;3.60;;;11.90;99.90;;;;;;10307775;28;20281;-84
2022/11/13 09:15:41;;;;;;;5.33;3.70;;;11.90;99.90;;;;;;10347151;28;20222;-81
2022/11/13 09:21:21;;;;;;;4.33;3.00;;;11.90;99.90;;;;;;10340353;28;20212;-81
2022/11/13 09:27:01;;;;;;;3.67;3.03;;;11.90;99.90;;;;;;10340339;28;20230;-80
2022/11/13 09:32:41;;;;;;;5.30;4.13;;;11.90;99.90;;;;;;10328993;28;20282;-83
2022/11/13 09:38:22;;;;;;;5.87;3.60;;;11.90;99.90;;;;;;10346994;28;20292;-79
2022/11/13 09:44:05;;;;;;;4.30;3.57;;;11.90;99.90;;;;;;10345773;28;20191;-80
2022/11/13 09:49:56;;;;;;;4.53;3.23;;;11.90;99.90;;;;;;10344126;28;20228;-79
2022/11/13 09:55:45;;;;;;;5.83;4.43;;;11.90;99.90;;;;;;10344978;28;20220;-79
2022/11/13 10:01:39;;;;;;;4.00;3.07;;;11.90;99.90;;;;;;10330957;28;20239;-79
2022/11/13 10:07:39;;;;;;;5.07;3.63;;;11.90;99.90;;;;;;10340749;28;20210;-82
2022/11/13 10:13:37;;;;;;;4.47;3.63;;;11.90;99.90;;;;;;10345106;28;20208;-80
2022/11/13 10:20:01;;;;;;;3.13;2.70;;;11.90;99.90;;;;;;10339494;28;20237;-82
2022/11/13 10:25:43;;;;;;;2.77;2.47;;;11.90;99.90;;;;;;10343989;28;20199;-88
2022/11/13 10:31:23;;;;;;;3.10;2.80;;;11.90;99.90;;;;;;10355881;28;20198;-79
2022/11/13 10:37:30;;;;;;;2.43;2.13;;;11.90;99.90;;;;;;10355222;28;20298;-84
2022/11/13 10:43:22;;;;;;;3.27;2.37;;;11.90;99.90;;;;;;10327126;28;20202;-86
2022/11/13 10:49:15;;;;;;;8.03;4.40;;;12.00;99.90;;;;;;10355263;28;20202;-86
2022/11/13 10:55:37;;;;;;;11.43;5.50;;;12.00;99.90;;;;;;10337763;28;20214;-81
2022/11/13 11:01:24;;;;;;;15.53;8.00;;;12.00;99.90;;;;;;10176345;29;20583;-88
2022/11/13 11:07:15;;;;;;;10.17;6.97;;;12.00;99.90;;;;;;10196624;29;20210;-79
2022/11/13 11:13:05;;;;;;;5.73;4.30;;;12.00;99.90;;;;;;10198263;29;20215;-83
2022/11/13 11:18:52;;;;;;;4.73;3.03;;;11.90;99.90;;;;;;10184521;29;20248;-83
2022/11/13 11:24:41;;;;;;;3.27;2.40;;;11.90;99.90;;;;;;10172602;29;20556;-80
2022/11/13 11:30:25;;;;;;;23.90;11.60;;;11.80;99.90;;;;;;10183560;29;20208;-82
2022/11/13 11:36:28;;;;;;;34.50;18.53;;;11.80;99.90;;;;;;10344329;28;20294;-80
2022/11/13 11:42:20;;;;;;;36.27;20.17;;;11.80;99.90;;;;;;10350193;28;20307;-88
2022/11/13 11:48:03;;;;;;;13.27;7.60;;;11.70;99.90;;;;;;10361935;28;20266;-80
2022/11/13 11:54:05;;;;;;;15.83;9.97;;;11.70;99.90;;;;;;10349641;28;20431;-88
2022/11/13 12:00:17;;;;;;;9.80;5.87;;;11.70;99.90;;;;;;10349533;28;20545;-89
2022/11/13 12:06:41;;;;;;;3.57;2.73;;;11.70;99.90;;;;;;10323608;28;20207;-79
2022/11/13 12:12:43;;;;;;;16.17;8.27;;;11.70;99.90;;;;;;10161856;29;20225;-80
2022/11/13 12:18:29;;;;;;;12.07;7.70;;;11.70;99.90;;;;;;10158861;29;20255;-80
2022/11/13 12:24:27;;;;;;;11.30;7.80;;;11.80;99.90;;;;;;10142303;29;20213;-85
2022/11/13 12:30:25;;;;;;;11.37;8.00;;;11.90;99.90;;;;;;10158143;29;20266;-79
2022/11/13 12:36:09;;;;;;;14.90;10.17;;;12.00;99.90;;;;;;10141747;29;20248;-79
2022/11/13 12:42:04;;;;;;;17.47;10.93;;;12.00;99.90;;;;;;10141990;29;20219;-83
2022/11/13 12:47:44;;;;;;;15.70;10.57;;;12.00;99.90;;;;;;10324111;28;20213;-80
2022/11/13 12:53:27;;;;;;;12.03;9.40;;;11.90;99.90;;;;;;10330410;28;20206;-87
2022/11/13 12:59:30;;;;;;;13.43;8.17;;;11.90;99.90;;;;;;10358515;28;20415;-80
2022/11/13 13:05:32;;;;;;;13.17;9.50;;;11.80;99.90;;;;;;10316534;28;20501;-80
2022/11/13 13:11:45;;;;;;;18.63;11.30;;;11.80;99.90;;;;;;10382061;28;20205;-80
2022/11/13 13:17:25;;;;;;;21.00;12.93;;;11.80;99.90;;;;;;10346801;28;20230;-80
2022/11/13 13:23:11;;;;;;;16.13;10.63;;;11.70;99.90;;;;;;10358178;28;20358;-82
2022/11/13 13:28:52;;;;;;;12.27;8.50;;;11.70;99.90;;;;;;10345347;28;20200;-84
2022/11/13 13:34:50;;;;;;;15.83;11.07;;;11.70;99.90;;;;;;10356983;28;20257;-80
2022/11/13 13:40:57;;;;;;;14.00;10.10;;;11.60;99.90;;;;;;10345971;28;20230;-80
2022/11/13 13:46:37;;;;;;;10.37;8.10;;;11.60;99.90;;;;;;10328357;28;20205;-84
2022/11/13 13:52:22;;;;;;;9.03;7.33;;;11.50;99.90;;;;;;10358124;28;20211;-80
2022/11/13 13:58:27;;;;;;;13.63;8.73;;;11.50;99.90;;;;;;10357054;28;20258;-86
2022/11/13 14:04:18;;;;;;;13.50;9.13;;;11.50;99.90;;;;;;10344267;28;20316;-84
2022/11/13 14:10:27;;;;;;;11.47;6.87;;;11.50;99.90;;;;;;10324340;28;20396;-84
2022/11/13 14:16:07;;;;;;;10.13;8.50;;;11.50;99.90;;;;;;10345940;28;20264;-80
2022/11/13 14:21:55;;;;;;;12.33;8.87;;;11.50;99.90;;;;;;10345852;28;20203;-79
2022/11/13 14:27:36;;;;;;;10.93;5.90;;;11.50;99.90;;;;;;10352504;28;20189;-81
2022/11/13 14:33:27;;;;;;;54.87;28.07;;;11.40;99.90;;;;;;10376988;28;20190;-81
2022/11/13 14:39:28;;;;;;;24.20;14.87;;;11.40;99.90;;;;;;10359309;28;20220;-81
2022/11/13 14:45:16;;;;;;;29.30;19.67;;;11.40;99.90;;;;;;10366938;28;20205;-84
2022/11/13 14:51:03;;;;;;;23.63;15.17;;;11.40;99.90;;;;;;10365390;28;20209;-79
2022/11/13 14:56:43;;;;;;;12.93;8.87;;;11.30;99.90;;;;;;10336013;28;20540;-80
2022/11/13 15:02:23;;;;;;;11.83;7.73;;;11.30;99.90;;;;;;10364042;28;20486;-87
2022/11/13 15:08:03;;;;;;;29.13;14.00;;;11.30;99.90;;;;;;10374101;28;20318;-89
2022/11/13 15:13:44;;;;;;;19.87;11.43;;;11.30;99.90;;;;;;10316601;28;20233;-80
2022/11/13 15:19:34;;;;;;;12.37;8.80;;;11.20;99.90;;;;;;10335409;28;20232;-81
2022/11/13 15:25:16;;;;;;;12.37;8.20;;;11.20;99.90;;;;;;10364521;28;20217;-80
2022/11/13 15:30:56;;;;;;;19.23;10.80;;;11.20;99.90;;;;;;10363188;28;20206;-84
2022/11/13 15:36:36;;;;;;;12.07;7.77;;;11.20;99.90;;;;;;10345254;28;20252;-88
2022/11/13 15:42:19;;;;;;;8.83;6.20;;;11.10;99.90;;;;;;10334899;28;20421;-88
2022/11/13 15:47:59;;;;;;;8.70;6.83;;;11.10;99.90;;;;;;10350402;28;20493;-88
2022/11/13 15:53:40;;;;;;;12.83;7.03;;;11.10;99.90;;;;;;10332654;28;20208;-80
2022/11/13 15:59:19;;;;;;;7.00;5.37;;;11.10;99.90;;;;;;10361124;28;20230;-85
2022/11/13 16:04:59;;;;;;;8.50;5.57;;;11.10;99.90;;;;;;10350911;28;20391;-87
2022/11/13 16:10:40;;;;;;;8.57;6.33;;;11.10;99.90;;;;;;10371270;28;20205;-80
2022/11/13 16:16:33;;;;;;;16.87;9.90;;;11.10;99.90;;;;;;10344442;28;20243;-86
2022/11/13 16:22:21;;;;;;;22.97;14.87;;;11.10;99.90;;;;;;10334025;28;20205;-84
2022/11/13 16:28:02;;;;;;;27.13;16.57;;;11.10;99.90;;;;;;10364637;28;20198;-79
2022/11/13 16:33:43;;;;;;;25.20;16.47;;;11.10;99.90;;;;;;10354711;28;20487;-88
2022/11/13 16:39:23;;;;;;;26.63;17.30;;;11.00;99.90;;;;;;10359454;28;20223;-82
2022/11/13 16:45:03;;;;;;;23.20;14.87;;;11.00;99.90;;;;;;10342120;28;20199;-85
2022/11/13 16:50:43;;;;;;;31.60;19.37;;;11.00;99.90;;;;;;10359628;28;20194;-88
2022/11/13 16:56:29;;;;;;;24.83;17.77;;;11.00;99.90;;;;;;10341560;28;20225;-88
2022/11/13 17:02:17;;;;;;;37.30;21.47;;;11.00;99.90;;;;;;10352454;28;20241;-83
2022/11/13 17:07:58;;;;;;;31.63;19.67;;;11.00;99.90;;;;;;10352660;28;20208;-86
2022/11/13 17:13:38;;;;;;;28.57;17.90;;;11.00;99.90;;;;;;10327939;28;20271;-85
2022/11/13 17:19:18;;;;;;;25.23;15.70;;;11.00;99.90;;;;;;10331383;28;20231;-88
2022/11/13 17:24:58;;;;;;;28.03;16.83;;;10.90;99.90;;;;;;10340847;28;20224;-80
2022/11/13 17:30:38;;;;;;;18.93;13.83;;;10.90;99.90;;;;;;10329405;28;20205;-79
2022/11/13 17:36:19;;;;;;;25.40;16.77;;;10.90;99.90;;;;;;10358188;28;20207;-85
2022/11/13 17:41:59;;;;;;;21.00;15.63;;;10.80;99.90;;;;;;10340872;28;20212;-82
2022/11/13 17:47:39;;;;;;;17.70;13.23;;;10.80;99.90;;;;;;10340547;28;20284;-83
2022/11/13 17:53:19;;;;;;;24.53;17.03;;;10.80;99.90;;;;;;10357430;28;20199;-78
2022/11/13 17:58:59;;;;;;;34.33;20.97;;;10.80;99.90;;;;;;10327993;28;20258;-78
2022/11/13 18:04:39;;;;;;;24.67;15.40;;;10.80;99.90;;;;;;10312991;28;20217;-80
2022/11/13 18:10:19;;;;;;;20.80;14.27;;;10.70;99.90;;;;;;10308349;28;20208;-80
2022/11/13 18:16:08;;;;;;;21.70;14.73;;;10.70;99.90;;;;;;10328665;28;20200;-87
2022/11/13 18:21:48;;;;;;;22.50;12.93;;;10.70;99.90;;;;;;10356451;28;20194;-86
2022/11/13 18:27:28;;;;;;;23.23;15.20;;;10.70;99.90;;;;;;10331500;28;20212;-77
2022/11/13 18:33:08;;;;;;;17.23;12.90;;;10.70;99.90;;;;;;10342800;28;20207;-83
2022/11/13 18:38:48;;;;;;;14.90;9.93;;;10.70;99.90;;;;;;10361721;28;20232;-78
2022/11/13 18:44:29;;;;;;;23.37;11.33;;;10.60;99.90;;;;;;10329547;28;20495;-78
2022/11/13 18:50:09;;;;;;;16.17;10.97;;;10.60;99.90;;;;;;10339921;28;20211;-85
2022/11/13 18:55:49;;;;;;;13.43;8.67;;;10.60;99.90;;;;;;10338771;28;20208;-81
2022/11/13 19:01:32;;;;;;;20.67;16.00;;;10.50;99.90;;;;;;10356033;28;20244;-77
2022/11/13 19:07:12;;;;;;;20.50;13.60;;;10.40;99.90;;;;;;10305954;28;20388;-84
2022/11/13 19:12:52;;;;;;;14.53;10.70;;;10.40;99.90;;;;;;10328805;28;20526;-79
2022/11/13 19:18:34;;;;;;;28.03;16.03;;;10.40;99.90;;;;;;10329096;28;20236;-78
2022/11/13 19:24:14;;;;;;;21.23;12.70;;;10.40;99.90;;;;;;10374196;28;20185;-78
2022/11/13 19:29:54;;;;;;;10.87;7.23;;;10.40;99.90;;;;;;10349096;28;20205;-80
2022/11/13 19:35:35;;;;;;;7.27;5.47;;;10.30;99.90;;;;;;10363605;28;20540;-87
2022/11/13 19:41:16;;;;;;;9.00;5.40;;;10.30;99.90;;;;;;10363254;28;20246;-78
2022/11/13 19:46:56;;;;;;;9.13;5.80;;;10.30;99.90;;;;;;10345810;28;20208;-86
2022/11/13 19:52:36;;;;;;;8.77;5.90;;;10.30;99.90;;;;;;10334430;28;20210;-78
2022/11/13 19:58:16;;;;;;;9.30;6.77;;;10.20;99.90;;;;;;10345275;28;20546;-78
2022/11/13 20:04:00;;;;;;;11.07;7.27;;;10.10;99.90;;;;;;10340050;28;20197;-82
2022/11/13 20:09:41;;;;;;;11.40;9.03;;;10.20;99.90;;;;;;10379581;28;20311;-80
2022/11/13 20:15:21;;;;;;;10.43;7.50;;;10.20;99.90;;;;;;10361559;28;20200;-78
2022/11/13 20:21:01;;;;;;;9.40;7.40;;;10.10;99.90;;;;;;10332456;28;20445;-78
2022/11/13 20:26:41;;;;;;;10.27;8.20;;;10.10;99.90;;;;;;10331611;28;20215;-78
2022/11/13 20:32:21;;;;;;;8.00;6.47;;;10.10;99.90;;;;;;10331165;28;20199;-78
2022/11/13 20:38:02;;;;;;;9.00;6.57;;;10.10;99.90;;;;;;10342162;28;20661;-81
2022/11/13 20:43:42;;;;;;;7.97;6.37;;;10.10;99.90;;;;;;10342728;28;20388;-78
2022/11/13 20:49:22;;;;;;;11.90;7.30;;;10.10;99.90;;;;;;10359250;28;20200;-81
2022/11/13 20:55:02;;;;;;;18.07;11.07;;;10.10;99.90;;;;;;10348452;28;20244;-81
2022/11/13 21:00:42;;;;;;;33.57;20.53;;;10.10;99.90;;;;;;10343915;28;20249;-78
2022/11/13 21:06:25;;;;;;;35.53;21.07;;;10.10;99.90;;;;;;10345414;28;20219;-81
2022/11/13 21:12:05;;;;;;;27.33;16.47;;;10.10;99.90;;;;;;10346289;28;20216;-82
2022/11/13 21:17:45;;;;;;;25.30;15.37;;;10.10;99.90;;;;;;10341673;28;20231;-79
2022/11/13 21:23:28;;;;;;;22.97;14.60;;;10.10;99.90;;;;;;10329556;28;20406;-80
2022/11/13 21:29:08;;;;;;;34.33;18.37;;;10.10;99.90;;;;;;10357532;28;20196;-78
2022/11/13 21:34:48;;;;;;;33.73;19.33;;;10.20;99.90;;;;;;10345874;28;20511;-79
2022/11/13 21:40:28;;;;;;;28.93;16.70;;;10.10;99.90;;;;;;10339833;28;20238;-78
2022/11/13 21:46:08;;;;;;;18.87;13.03;;;10.20;99.90;;;;;;10345123;28;20197;-80
2022/11/13 21:51:48;;;;;;;17.43;10.33;;;10.10;99.90;;;;;;10328097;28;20484;-82
2022/11/13 21:57:29;;;;;;;15.23;10.50;;;10.10;99.90;;;;;;10328259;28;20234;-86
2022/11/13 22:03:09;;;;;;;18.20;11.80;;;10.20;99.90;;;;;;10342145;28;20205;-81
2022/11/13 22:09:00;;;;;;;14.43;10.40;;;10.20;99.90;;;;;;10365406;28;20440;-87
2022/11/13 22:14:40;;;;;;;18.13;10.47;;;10.20;99.90;;;;;;10330300;28;20399;-78
2022/11/13 22:20:20;;;;;;;15.03;10.07;;;10.20;99.90;;;;;;10316243;28;20228;-78
2022/11/13 22:26:08;;;;;;;17.53;11.47;;;10.20;99.90;;;;;;10304096;28;20485;-78
2022/11/13 22:31:48;;;;;;;14.00;9.13;;;10.10;99.90;;;;;;10314447;28;20216;-79
2022/11/13 22:37:28;;;;;;;14.10;10.13;;;10.10;99.90;;;;;;10303386;28;20552;-85
2022/11/13 22:43:08;;;;;;;14.17;9.67;;;10.20;99.90;;;;;;10314293;28;20208;-79
2022/11/13 22:48:50;;;;;;;14.03;9.27;;;10.10;99.90;;;;;;10314478;28;20397;-87
2022/11/13 22:54:30;;;;;;;13.57;9.13;;;10.10;99.90;;;;;;10317723;28;20209;-79
2022/11/13 23:00:10;;;;;;;18.63;9.73;;;10.10;99.90;;;;;;10314009;28;20562;-79
2022/11/13 23:05:50;;;;;;;14.80;9.37;;;10.10;99.90;;;;;;10338106;28;20558;-78
2022/11/13 23:11:36;;;;;;;12.23;8.60;;;10.00;99.90;;;;;;10366926;28;20220;-81
2022/11/13 23:17:16;;;;;;;12.30;8.20;;;10.00;99.90;;;;;;10346357;28;20525;-79
2022/11/13 23:22:56;;;;;;;15.00;9.80;;;10.10;99.90;;;;;;10334333;28;20209;-88
2022/11/13 23:28:37;;;;;;;15.00;10.33;;;10.10;99.90;;;;;;10344869;28;20208;-85
2022/11/13 23:34:17;;;;;;;15.40;10.77;;;10.00;99.90;;;;;;10333986;28;20216;-79
2022/11/13 23:40:05;;;;;;;19.13;12.37;;;10.00;99.90;;;;;;10361755;28;20226;-78
2022/11/13 23:45:46;;;;;;;22.03;14.47;;;10.00;99.90;;;;;;10334198;28;20204;-84
2022/11/13 23:51:26;;;;;;;20.07;13.63;;;10.00;99.90;;;;;;10348544;28;20208;-81
2022/11/13 23:57:06;;;;;;;22.27;13.53;;;9.90;99.90;;;;;;10333308;28;20202;-79
